createdAt,value
2023-01-13T00:01:54.603Z,63.51
2023-01-13T00:04:25.801Z,61.59
2023-01-13T00:06:56.905Z,58.08
2023-01-13T00:09:27.763Z,56.66
2023-01-13T00:11:58.672Z,57.79
2023-01-13T00:14:32.511Z,59.50
2023-01-13T00:17:03.382Z,61.07
2023-01-13T00:19:34.763Z,66.71
2023-01-13T00:22:06.794Z,66.82
2023-01-13T00:24:37.857Z,63.32
2023-01-13T00:27:08.800Z,60.47
2023-01-13T00:29:39.835Z,56.88
2023-01-13T00:32:10.394Z,56.61
2023-01-13T00:34:41.313Z,58.55
2023-01-13T00:51:04.884Z,62.04
2023-01-13T00:53:36.478Z,59.72
2023-01-13T00:56:07.978Z,56.29
2023-01-13T00:58:38.699Z,56.71
2023-01-13T01:01:10.978Z,58.00
2023-01-13T01:03:42.017Z,59.76
2023-01-13T01:06:14.067Z,61.01
2023-01-13T01:08:44.808Z,65.94
2023-01-13T01:11:16.869Z,67.69
2023-01-13T01:13:47.916Z,63.98
2023-01-13T01:16:19.576Z,60.28
2023-01-13T01:18:51.239Z,56.58
2023-01-13T01:21:23.375Z,56.31
2023-01-13T01:23:54.459Z,58.29
2023-01-13T01:26:26.706Z,59.82
2023-01-13T01:28:57.832Z,64.47
2023-01-13T01:31:31.814Z,66.59
2023-01-13T01:34:03.409Z,63.41
2023-01-13T01:36:35.366Z,60.32
2023-01-13T01:39:07.118Z,56.88
2023-01-13T01:41:38.441Z,56.37
2023-01-13T01:44:30.286Z,58.56
2023-01-13T01:47:01.457Z,59.76
2023-01-13T01:49:34.836Z,61.84
2023-01-13T01:52:08.311Z,68.45
2023-01-13T01:54:37.430Z,68.58
2023-01-13T01:57:09.656Z,65.60
2023-01-13T01:59:41.043Z,62.18
2023-01-13T02:02:12.313Z,59.96
2023-01-13T02:04:51.325Z,57.17
2023-01-13T02:07:23.540Z,57.66
2023-01-13T02:09:55.563Z,60.68
2023-01-13T02:12:33.640Z,64.95
2023-01-13T02:15:06.613Z,66.39
2023-01-13T02:17:46.317Z,63.33
2023-01-13T02:20:27.550Z,60.18
2023-01-13T02:23:36.728Z,57.00
2023-01-13T02:26:20.935Z,57.43
2023-01-13T02:29:21.465Z,59.26
2023-01-13T02:31:53.447Z,60.61
2023-01-13T02:34:27.540Z,66.33
2023-01-13T02:37:01.392Z,67.92
2023-01-13T02:39:30.396Z,64.71
2023-01-13T02:42:24.690Z,62.43
2023-01-13T02:44:57.517Z,60.49
2023-01-13T02:47:32.411Z,58.44
2023-01-13T02:50:07.173Z,58.55
2023-01-13T02:52:39.543Z,60.23
2023-01-13T02:55:12.001Z,64.85
2023-01-13T02:57:43.565Z,66.48
2023-01-13T03:00:15.889Z,63.38
2023-01-13T03:02:48.546Z,60.68
2023-01-13T03:05:19.844Z,59.21
2023-01-13T03:08:06.023Z,57.03
2023-01-13T03:10:56.145Z,57.93
2023-01-13T03:13:36.761Z,60.82
2023-01-13T03:16:13.355Z,65.95
2023-01-13T03:18:46.375Z,65.27
2023-01-13T03:21:21.223Z,63.22
2023-01-13T03:23:53.600Z,61.47
2023-01-13T03:26:27.816Z,61.40
2023-01-13T03:29:03.057Z,59.52
2023-01-13T03:31:36.208Z,57.81
2023-01-13T03:34:05.916Z,57.47
2023-01-13T03:36:39.204Z,58.55
2023-01-13T03:39:13.427Z,63.51
2023-01-13T03:41:47.278Z,66.28
2023-01-13T03:44:24.615Z,64.82
2023-01-13T03:46:59.792Z,62.92
2023-01-13T03:49:32.606Z,60.60
2023-01-13T03:52:06.257Z,58.32
2023-01-13T03:54:40.972Z,58.45
2023-01-13T03:57:13.210Z,61.11
2023-01-13T03:59:45.938Z,64.61
2023-01-13T04:02:20.298Z,64.09
2023-01-13T04:04:53.831Z,61.46
2023-01-13T04:07:31.939Z,59.17
2023-01-13T04:10:03.930Z,56.60
2023-01-13T04:12:50.188Z,57.73
2023-01-13T04:15:23.988Z,59.32
2023-01-13T04:17:55.151Z,64.88
2023-01-13T04:20:26.080Z,66.81
2023-01-13T04:22:56.830Z,63.49
2023-01-13T04:25:27.475Z,61.13
2023-01-13T04:27:58.284Z,58.35
2023-01-13T04:30:29.632Z,56.67
2023-01-13T04:33:00.259Z,58.22
2023-01-13T04:35:31.611Z,60.00
2023-01-13T04:38:03.844Z,65.44
2023-01-13T04:40:34.812Z,66.27
2023-01-13T04:43:05.554Z,64.07
2023-01-13T04:45:36.587Z,60.93
2023-01-13T04:48:07.770Z,57.96
2023-01-13T04:50:38.632Z,57.24
2023-01-13T04:53:09.398Z,59.07
2023-01-13T04:55:40.503Z,60.64
2023-01-13T04:58:11.788Z,65.32
2023-01-13T05:00:42.899Z,66.63
2023-01-13T05:03:13.789Z,64.92
2023-01-13T05:05:44.607Z,60.92
2023-01-13T05:08:15.361Z,59.33
2023-01-13T05:10:46.282Z,57.15
2023-01-13T05:13:49.365Z,57.67
2023-01-13T05:16:37.931Z,60.67
2023-01-13T05:19:08.812Z,65.93
2023-01-13T05:21:56.831Z,66.01
2023-01-13T05:24:44.953Z,63.20
2023-01-13T05:27:15.569Z,59.83
2023-01-13T05:29:46.299Z,56.95
2023-01-13T05:32:17.550Z,57.59
2023-01-13T05:34:48.169Z,59.82
2023-01-13T05:37:19.062Z,63.98
2023-01-13T05:40:07.665Z,63.28
2023-01-13T05:42:55.940Z,59.10
2023-01-13T05:45:26.843Z,57.16
2023-01-13T05:47:57.911Z,61.19
2023-01-13T05:50:28.713Z,64.59
2023-01-13T05:52:59.394Z,62.70
2023-01-13T05:55:30.216Z,59.11
2023-01-13T05:58:00.962Z,56.45
2023-01-13T06:00:31.738Z,58.11
2023-01-13T06:03:02.941Z,61.51
2023-01-13T06:05:34.458Z,63.55
2023-01-13T06:08:06.602Z,62.91
2023-01-13T06:10:37.450Z,59.58
2023-01-13T06:13:08.723Z,57.81
2023-01-13T06:15:39.587Z,59.56
2023-01-13T06:18:10.667Z,62.13
2023-01-13T06:20:41.303Z,62.64
2023-01-13T06:23:13.232Z,60.90
2023-01-13T06:25:46.316Z,57.53
2023-01-13T06:28:17.703Z,55.98
2023-01-13T06:30:50.691Z,58.89
2023-01-13T06:33:23.678Z,59.01
2023-01-13T06:35:56.254Z,62.56
2023-01-13T06:38:28.803Z,64.95
2023-01-13T06:40:59.595Z,62.34
2023-01-13T06:43:31.124Z,58.42
2023-01-13T06:46:02.175Z,56.84
2023-01-13T06:48:35.728Z,57.78
2023-01-13T06:51:06.905Z,59.00
2023-01-13T06:53:38.651Z,61.33
2023-01-13T06:56:09.538Z,64.32
2023-01-13T06:58:40.479Z,63.09
2023-01-13T07:01:11.180Z,58.25
2023-01-13T07:03:42.510Z,56.19
2023-01-13T07:06:13.050Z,56.90
2023-01-13T07:08:43.951Z,58.21
2023-01-13T07:11:14.563Z,59.63
2023-01-13T07:14:03.008Z,64.92
2023-01-13T07:16:33.849Z,64.58
2023-01-13T07:19:04.925Z,59.75
2023-01-13T07:21:35.582Z,55.44
2023-01-13T07:24:06.969Z,55.95
2023-01-13T07:26:41.224Z,59.30
2023-01-13T07:29:12.583Z,60.21
2023-01-13T07:31:43.356Z,62.43
2023-01-13T07:34:15.642Z,64.67
2023-01-13T07:36:46.259Z,61.71
2023-01-13T07:39:17.037Z,56.81
2023-01-13T07:42:05.295Z,56.12
2023-01-13T07:44:36.117Z,56.48
2023-01-13T07:47:08.643Z,58.68
2023-01-13T07:49:39.942Z,59.95
2023-01-13T07:52:10.539Z,61.11
2023-01-13T07:54:41.732Z,64.16
2023-01-13T07:57:12.445Z,62.23
2023-01-13T07:59:43.183Z,58.00
2023-01-13T08:02:14.544Z,56.38
2023-01-13T08:04:45.813Z,58.93
2023-01-13T08:07:16.423Z,60.57
2023-01-13T08:09:47.236Z,62.21
2023-01-13T08:12:35.491Z,60.62
2023-01-13T08:15:07.237Z,57.29
2023-01-13T08:17:37.872Z,57.75
2023-01-13T08:20:09.838Z,59.12
2023-01-13T08:22:40.726Z,60.77
2023-01-13T08:25:11.970Z,61.49
2023-01-13T08:27:43.124Z,62.01
2023-01-13T08:30:13.997Z,62.08
2023-01-13T08:32:46.499Z,58.58
2023-01-13T08:35:19.321Z,56.36
2023-01-13T08:37:50.341Z,57.04
2023-01-13T08:40:22.541Z,59.10
2023-01-13T08:42:54.092Z,59.60
2023-01-13T08:45:25.399Z,60.76
2023-01-13T08:47:56.592Z,61.10
2023-01-13T08:50:27.467Z,61.70
2023-01-13T08:52:58.430Z,61.53
2023-01-13T08:55:29.849Z,62.38
2023-01-13T08:58:14.752Z,58.90
2023-01-13T09:00:47.116Z,56.28
2023-01-13T09:03:17.786Z,57.54
2023-01-13T09:05:48.695Z,58.69
2023-01-13T09:08:19.672Z,59.16
2023-01-13T09:10:50.624Z,59.66
2023-01-13T09:13:21.933Z,60.00
2023-01-13T09:15:56.718Z,60.20
2023-01-13T09:18:27.668Z,60.24
2023-01-13T09:21:00.623Z,60.04
2023-01-13T09:23:31.540Z,60.19
2023-01-13T09:26:02.716Z,60.30
2023-01-13T09:28:33.689Z,60.14
2023-01-13T09:31:04.869Z,60.08
2023-01-13T09:33:53.211Z,60.01
2023-01-13T09:36:24.360Z,59.87
2023-01-13T09:38:55.111Z,59.79
2023-01-13T09:41:47.959Z,59.48
2023-01-13T09:44:20.621Z,59.85
2023-01-13T09:46:54.896Z,59.65
2023-01-13T09:49:26.859Z,59.92
2023-01-13T09:52:00.160Z,60.10
2023-01-13T09:54:33.056Z,59.94
2023-01-13T09:57:04.011Z,60.02
2023-01-13T09:59:36.647Z,60.01
2023-01-13T10:02:15.412Z,60.21
2023-01-13T10:05:02.987Z,60.12
2023-01-13T10:07:36.049Z,59.73
2023-01-13T10:10:12.141Z,59.88
2023-01-13T10:13:01.826Z,59.09
2023-01-13T10:15:32.915Z,58.67
2023-01-13T10:18:08.618Z,58.54
2023-01-13T10:20:44.420Z,58.19
2023-01-13T10:23:24.039Z,57.97
2023-01-13T10:26:02.091Z,58.00
2023-01-13T10:28:33.033Z,58.60
2023-01-13T10:31:06.905Z,58.43
2023-01-13T10:33:37.945Z,57.78
2023-01-13T10:36:16.048Z,57.73
2023-01-13T10:38:47.728Z,57.99
2023-01-13T10:41:25.298Z,58.40
2023-01-13T10:44:03.964Z,58.20
2023-01-13T10:46:36.024Z,57.28
2023-01-13T10:49:24.482Z,57.82
2023-01-13T10:51:55.257Z,56.89
2023-01-13T10:54:27.292Z,57.28
2023-01-13T10:57:14.207Z,57.27
2023-01-13T10:59:45.491Z,56.46
2023-01-13T11:02:25.877Z,56.80
2023-01-13T11:05:13.863Z,57.53
2023-01-13T11:07:50.497Z,56.78
2023-01-13T11:10:23.141Z,56.87
2023-01-13T11:13:00.689Z,56.75
2023-01-13T11:15:38.389Z,56.51
2023-01-13T11:18:15.364Z,56.29
2023-01-13T11:20:47.919Z,56.34
2023-01-13T11:23:22.914Z,56.47
2023-01-13T11:25:56.233Z,56.87
2023-01-13T11:28:31.893Z,56.80
2023-01-13T11:31:05.670Z,56.69
2023-01-13T11:33:40.500Z,56.18
2023-01-13T11:36:13.693Z,55.89
2023-01-13T11:38:42.973Z,56.23
2023-01-13T11:41:16.801Z,56.13
2023-01-13T11:43:51.403Z,56.14
2023-01-13T11:46:23.326Z,56.14
2023-01-13T11:48:56.473Z,56.57
2023-01-13T11:51:33.653Z,56.59
2023-01-13T11:54:11.895Z,56.44
2023-01-13T11:56:56.149Z,56.60
2023-01-13T11:59:36.971Z,56.60
2023-01-13T12:02:15.690Z,56.65
2023-01-13T12:04:50.740Z,56.95
2023-01-13T12:07:23.399Z,57.26
2023-01-13T12:10:03.465Z,56.86
2023-01-13T12:12:43.451Z,56.49
2023-01-13T12:15:35.898Z,56.54
2023-01-13T12:18:26.256Z,56.53
2023-01-13T12:21:01.886Z,56.63
2023-01-13T12:23:36.460Z,56.87
2023-01-13T12:26:09.447Z,56.35
2023-01-13T12:28:44.409Z,56.56
2023-01-13T12:31:17.097Z,56.18
2023-01-13T12:33:52.874Z,56.53
2023-01-13T12:36:28.618Z,56.58
2023-01-13T12:39:03.893Z,56.83
2023-01-13T12:41:59.678Z,56.80
2023-01-13T12:44:33.705Z,56.49
2023-01-13T12:47:04.169Z,56.58
2023-01-13T12:49:36.748Z,56.85
2023-01-13T12:52:23.733Z,57.15
2023-01-13T12:55:14.332Z,57.15
2023-01-13T12:57:58.510Z,57.18
2023-01-13T13:00:38.388Z,57.27
2023-01-13T13:03:28.796Z,57.15
2023-01-13T13:06:01.825Z,57.36
2023-01-13T13:08:42.773Z,57.52
2023-01-13T13:11:53.218Z,57.59
2023-01-13T13:14:41.076Z,57.42
2023-01-13T13:17:26.020Z,57.46
2023-01-13T13:19:56.922Z,57.81
2023-01-13T13:22:47.502Z,57.92
2023-01-13T13:25:27.933Z,57.94
2023-01-13T13:28:06.999Z,57.87
2023-01-13T13:30:38.525Z,57.89
2023-01-13T13:33:16.688Z,58.15
2023-01-13T13:35:53.072Z,58.30
2023-01-13T13:39:01.370Z,58.12
2023-01-13T13:41:50.035Z,58.13
2023-01-13T13:44:40.729Z,58.38
2023-01-13T13:47:11.658Z,58.59
2023-01-13T13:49:45.723Z,58.73
2023-01-13T13:52:19.911Z,58.92
2023-01-13T13:54:52.300Z,59.11
2023-01-13T13:57:24.119Z,59.22
2023-01-13T13:59:56.263Z,59.36
2023-01-13T14:02:30.139Z,59.49
2023-01-13T14:05:18.069Z,59.37
2023-01-13T14:07:49.991Z,59.71
2023-01-13T14:10:22.243Z,59.56
2023-01-13T14:12:53.048Z,59.74
2023-01-13T14:15:32.570Z,59.70
2023-01-13T14:18:05.481Z,59.80
2023-01-13T14:20:37.433Z,59.88
2023-01-13T14:23:08.463Z,60.01
2023-01-13T14:25:40.882Z,60.21
2023-01-13T14:28:19.049Z,60.23
2023-01-13T14:30:51.428Z,60.42
2023-01-13T14:33:24.193Z,60.48
2023-01-13T14:36:13.937Z,60.68
2023-01-13T14:38:45.472Z,60.58
2023-01-13T14:41:25.321Z,60.82
2023-01-13T14:43:58.241Z,60.89
2023-01-13T14:46:38.867Z,60.69
2023-01-13T14:49:20.499Z,60.80
2023-01-13T14:51:51.897Z,60.86
2023-01-13T14:54:36.079Z,60.98
2023-01-13T14:57:15.091Z,60.90
2023-01-13T14:59:51.677Z,60.95
2023-01-13T15:02:45.144Z,60.94
2023-01-13T15:05:35.552Z,60.82
2023-01-13T15:08:10.070Z,60.73
2023-01-13T15:10:46.948Z,60.72
2023-01-13T15:13:26.213Z,60.75
2023-01-13T15:15:59.150Z,60.92
2023-01-13T15:18:30.156Z,60.84
2023-01-13T15:21:01.037Z,61.14
2023-01-13T15:23:32.031Z,60.90
2023-01-13T15:26:03.121Z,60.90
2023-01-13T15:28:34.295Z,61.00
2023-01-13T15:31:04.959Z,61.05
2023-01-13T15:33:36.094Z,61.07
2023-01-13T15:36:07.957Z,61.13
2023-01-13T15:38:38.797Z,61.17
2023-01-13T15:41:09.671Z,61.20
2023-01-13T15:43:58.218Z,61.29
2023-01-13T15:46:40.933Z,61.29
2023-01-13T15:49:18.957Z,61.15
2023-01-13T15:51:50.199Z,61.21
2023-01-13T15:54:24.876Z,61.30
2023-01-13T15:56:56.719Z,61.29
2023-01-13T15:59:28.703Z,61.38
2023-01-13T16:01:59.261Z,61.28
2023-01-13T16:04:30.114Z,61.17
2023-01-13T16:07:00.618Z,61.19
2023-01-13T16:09:31.678Z,61.14
2023-01-13T16:12:02.301Z,61.03
2023-01-13T16:14:33.343Z,61.11
2023-01-13T16:17:04.490Z,61.14
2023-01-13T16:19:35.524Z,60.95
2023-01-13T16:22:06.006Z,60.85
2023-01-13T16:24:37.112Z,60.89
2023-01-13T16:27:12.655Z,60.99
2023-01-13T16:29:43.779Z,61.12
2023-01-13T16:32:14.750Z,61.18
2023-01-13T16:34:45.606Z,61.20
2023-01-13T16:37:19.853Z,61.31
2023-01-13T16:39:50.655Z,61.27
2023-01-13T16:42:21.450Z,61.35
2023-01-13T16:44:53.149Z,61.27
2023-01-13T16:47:24.704Z,61.33
2023-01-13T16:49:55.641Z,61.37
2023-01-13T16:52:26.271Z,61.51
2023-01-13T16:54:57.176Z,61.56
2023-01-13T16:57:27.849Z,61.66
2023-01-13T16:59:58.945Z,61.64
2023-01-13T17:02:29.997Z,61.71
2023-01-13T17:05:01.080Z,62.14
2023-01-13T17:07:33.436Z,62.45
2023-01-13T17:10:05.070Z,60.85
2023-01-13T17:12:35.981Z,56.65
2023-01-13T17:15:07.806Z,57.91
2023-01-13T17:17:38.429Z,59.78
2023-01-13T17:20:14.061Z,61.06
2023-01-13T17:22:47.506Z,62.01
2023-01-13T17:25:21.083Z,61.92
2023-01-13T17:27:51.614Z,58.41
2023-01-13T17:30:22.779Z,57.88
2023-01-13T17:32:53.686Z,59.33
2023-01-13T17:35:25.724Z,60.51
2023-01-13T17:37:56.604Z,61.48
2023-01-13T17:40:28.073Z,62.13
2023-01-13T17:42:59.498Z,62.25
2023-01-13T17:45:30.544Z,59.20
2023-01-13T17:48:02.192Z,58.29
2023-01-13T17:50:34.252Z,59.43
2023-01-13T17:53:04.989Z,60.78
2023-01-13T17:55:36.168Z,61.91
2023-01-13T17:58:06.687Z,62.62
2023-01-13T18:00:37.845Z,57.95
2023-01-13T18:03:08.416Z,57.29
2023-01-13T18:05:39.946Z,59.34
2023-01-13T18:08:10.667Z,60.91
2023-01-13T18:10:41.837Z,61.90
2023-01-13T18:13:12.695Z,62.78
2023-01-13T18:15:43.940Z,58.46
2023-01-13T18:18:14.569Z,57.56
2023-01-13T18:21:04.892Z,59.42
2023-01-13T18:23:52.987Z,60.80
2023-01-13T18:26:41.644Z,61.86
2023-01-13T18:29:12.227Z,62.85
2023-01-13T18:31:43.167Z,60.16
2023-01-13T18:34:13.908Z,56.62
2023-01-13T18:36:44.957Z,56.98
2023-01-13T18:39:15.670Z,58.55
2023-01-13T18:42:04.471Z,60.16
2023-01-13T18:44:35.013Z,61.43
2023-01-13T18:47:06.138Z,62.46
2023-01-13T18:49:37.079Z,62.01
2023-01-13T18:52:08.218Z,57.84
2023-01-13T18:54:38.864Z,58.23
2023-01-13T18:57:10.772Z,59.47
2023-01-13T18:59:41.469Z,60.89
2023-01-13T19:02:15.229Z,62.22
2023-01-13T19:04:45.857Z,62.09
2023-01-13T19:07:23.780Z,58.57
2023-01-13T19:09:55.699Z,56.90
2023-01-13T19:12:27.918Z,58.99
2023-01-13T19:14:59.668Z,60.59
2023-01-13T19:17:32.555Z,62.12
2023-01-13T19:20:05.076Z,62.47
2023-01-13T19:22:36.165Z,59.17
2023-01-13T19:25:07.353Z,58.34
2023-01-13T19:27:40.195Z,60.64
2023-01-13T19:30:12.185Z,62.91
2023-01-13T19:32:43.191Z,59.77
2023-01-13T19:35:17.565Z,59.16
2023-01-13T19:37:49.730Z,61.46
2023-01-13T19:40:20.525Z,64.82
2023-01-13T19:43:09.170Z,62.00
2023-01-13T19:45:39.808Z,58.51
2023-01-13T19:48:11.298Z,61.50
2023-01-13T19:50:41.990Z,64.30
2023-01-13T19:53:16.177Z,60.28
2023-01-13T19:55:49.331Z,58.23
2023-01-13T19:58:20.536Z,63.52
2023-01-13T20:00:51.476Z,61.94
2023-01-13T20:03:25.051Z,59.65
2023-01-13T20:05:56.436Z,63.95
2023-01-13T20:08:27.663Z,65.52
2023-01-13T20:11:18.273Z,63.58
2023-01-13T20:13:49.517Z,63.10
2023-01-13T20:16:20.356Z,64.78
2023-01-13T20:18:52.207Z,63.41
2023-01-13T20:21:22.853Z,63.61
2023-01-13T20:23:54.315Z,62.60
2023-01-13T20:26:25.134Z,63.41
2023-01-13T20:28:56.202Z,62.64
2023-01-13T20:31:27.137Z,63.25
2023-01-13T20:33:58.556Z,64.18
2023-01-13T20:36:31.437Z,62.74
2023-01-13T20:39:04.639Z,61.37
2023-01-13T20:41:52.930Z,62.32
2023-01-13T20:44:23.919Z,61.48
2023-01-13T20:46:56.067Z,61.03
2023-01-13T20:49:27.658Z,61.89
2023-01-13T20:51:58.689Z,61.32
2023-01-13T20:54:30.155Z,62.10
2023-01-13T20:57:01.795Z,62.76
2023-01-13T20:59:33.014Z,61.18
2023-01-13T21:02:03.866Z,60.91
2023-01-13T21:04:39.413Z,66.79
2023-01-13T21:07:10.260Z,66.92
2023-01-13T21:09:41.080Z,62.74
2023-01-13T21:12:32.594Z,63.27
2023-01-13T21:15:20.349Z,64.65
2023-01-13T21:18:09.666Z,60.74
2023-01-13T21:20:40.919Z,60.84
2023-01-13T21:23:12.384Z,62.35
2023-01-13T21:25:43.522Z,63.79
2023-01-13T21:28:16.417Z,64.73
2023-01-13T21:30:47.993Z,64.95
2023-01-13T21:33:18.800Z,64.28
2023-01-13T21:35:49.838Z,63.56
2023-01-13T21:38:20.580Z,64.59
2023-01-13T21:41:01.135Z,64.43
2023-01-13T21:43:50.053Z,64.97
2023-01-13T21:46:39.404Z,64.97
2023-01-13T21:49:10.148Z,63.78
2023-01-13T21:51:41.083Z,63.60
2023-01-13T21:54:11.921Z,63.08
2023-01-13T21:56:44.566Z,61.88
2023-01-13T21:59:16.100Z,63.10
2023-01-13T22:02:24.130Z,63.13
2023-01-13T22:04:37.747Z,63.04
2023-01-13T22:07:08.997Z,62.69
2023-01-13T22:09:40.748Z,62.21
2023-01-13T22:12:11.672Z,62.04
2023-01-13T22:14:42.317Z,62.00
2023-01-13T22:17:14.903Z,61.41
2023-01-13T22:19:47.802Z,60.84
2023-01-13T22:22:19.143Z,59.97
2023-01-13T22:24:50.502Z,60.91
2023-01-13T22:27:22.193Z,64.36
2023-01-13T22:29:54.034Z,64.85
2023-01-13T22:32:25.157Z,64.61
2023-01-13T22:34:55.873Z,62.30
2023-01-13T22:37:27.012Z,59.67
2023-01-13T22:39:58.139Z,60.20
2023-01-13T22:42:29.896Z,65.40
2023-01-13T22:45:00.712Z,65.85
2023-01-13T22:47:31.708Z,64.69
2023-01-13T22:50:02.408Z,63.24
2023-01-13T22:52:34.026Z,62.13
2023-01-13T22:55:07.103Z,60.92
2023-01-13T22:57:47.429Z,61.30
2023-01-13T23:00:20.128Z,61.79
2023-01-13T23:02:50.859Z,62.21
2023-01-13T23:05:21.558Z,61.92
2023-01-13T23:07:52.348Z,60.51
2023-01-13T23:10:22.976Z,60.37
2023-01-13T23:12:54.367Z,60.20
2023-01-13T23:15:25.023Z,60.18
2023-01-13T23:17:55.839Z,59.70
2023-01-13T23:20:26.685Z,59.96
2023-01-13T23:22:59.504Z,59.67
2023-01-13T23:25:30.198Z,59.15
2023-01-13T23:28:00.962Z,63.50
2023-01-13T23:30:32.435Z,65.09
2023-01-13T23:33:03.411Z,62.68
2023-01-13T23:35:34.123Z,61.00
2023-01-13T23:38:04.982Z,59.70
2023-01-13T23:40:36.222Z,60.24
2023-01-13T23:43:07.211Z,64.71
2023-01-13T23:45:38.080Z,65.81
2023-01-13T23:48:09.272Z,63.36
2023-01-13T23:50:40.516Z,62.94
2023-01-13T23:53:11.629Z,62.81
2023-01-13T23:55:42.570Z,62.43
2023-01-13T23:58:14.743Z,62.39
